sensor_id;sensor_type;location;lat;lon;timestamp;pressure;altitude;pressure_sealevel;temperature;humidity
26489;BME280;14169;43.684;10.484;2022-07-03T00:01:44;101776.44;;;23.75;100.00
26489;BME280;14169;43.684;10.484;2022-07-03T00:04:10;101777.19;;;23.65;100.00
26489;BME280;14169;43.684;10.484;2022-07-03T00:06:35;101778.75;;;23.54;100.00
26489;BME280;14169;43.684;10.484;2022-07-03T00:09:03;101775.53;;;23.49;100.00
26489;BME280;14169;43.684;10.484;2022-07-03T00:11:29;101773.22;;;23.45;100.00
26489;BME280;14169;43.684;10.484;2022-07-03T00:13:54;101776.81;;;23.44;100.00
26489;BME280;14169;43.684;10.484;2022-07-03T00:16:20;101766.19;;;23.44;100.00
26489;BME280;14169;43.684;10.484;2022-07-03T00:18:45;101775.22;;;23.41;100.00
26489;BME280;14169;43.684;10.484;2022-07-03T00:21:12;101766.59;;;23.38;100.00
26489;BME280;14169;43.684;10.484;2022-07-03T00:23:49;101764.91;;;23.37;100.00
26489;BME280;14169;43.684;10.484;2022-07-03T00:26:19;101768.50;;;23.36;100.00
26489;BME280;14169;43.684;10.484;2022-07-03T00:28:45;101769.78;;;23.30;100.00
26489;BME280;14169;43.684;10.484;2022-07-03T00:31:11;101777.34;;;23.24;100.00
26489;BME280;14169;43.684;10.484;2022-07-03T00:33:37;101777.56;;;23.21;100.00
26489;BME280;14169;43.684;10.484;2022-07-03T00:36:03;101780.19;;;23.08;100.00
26489;BME280;14169;43.684;10.484;2022-07-03T00:38:29;101781.88;;;22.97;100.00
26489;BME280;14169;43.684;10.484;2022-07-03T00:40:54;101778.84;;;22.89;100.00
26489;BME280;14169;43.684;10.484;2022-07-03T00:43:21;101782.19;;;22.78;100.00
26489;BME280;14169;43.684;10.484;2022-07-03T00:45:49;101783.69;;;22.69;100.00
26489;BME280;14169;43.684;10.484;2022-07-03T00:48:16;101787.78;;;22.61;100.00
26489;BME280;14169;43.684;10.484;2022-07-03T00:50:50;101785.69;;;22.52;100.00
26489;BME280;14169;43.684;10.484;2022-07-03T00:53:27;101783.25;;;22.49;100.00
26489;BME280;14169;43.684;10.484;2022-07-03T00:55:54;101783.66;;;22.43;100.00
26489;BME280;14169;43.684;10.484;2022-07-03T00:58:20;101792.94;;;22.36;100.00
26489;BME280;14169;43.684;10.484;2022-07-03T01:00:47;101784.34;;;22.32;100.00
26489;BME280;14169;43.684;10.484;2022-07-03T01:03:15;101779.50;;;22.39;100.00
26489;BME280;14169;43.684;10.484;2022-07-03T01:05:49;101779.22;;;22.43;100.00
26489;BME280;14169;43.684;10.484;2022-07-03T01:08:41;101774.72;;;22.44;100.00
26489;BME280;14169;43.684;10.484;2022-07-03T01:11:21;101771.03;;;22.46;100.00
26489;BME280;14169;43.684;10.484;2022-07-03T01:14:04;101773.69;;;22.46;100.00
26489;BME280;14169;43.684;10.484;2022-07-03T01:16:37;101768.06;;;22.51;100.00
26489;BME280;14169;43.684;10.484;2022-07-03T01:19:37;101763.31;;;22.56;100.00
26489;BME280;14169;43.684;10.484;2022-07-03T01:22:28;101767.69;;;22.57;100.00
26489;BME280;14169;43.684;10.484;2022-07-03T01:25:17;101771.28;;;22.56;100.00
26489;BME280;14169;43.684;10.484;2022-07-03T01:30:18;101764.81;;;22.60;100.00
26489;BME280;14169;43.684;10.484;2022-07-03T01:32:46;101766.63;;;22.59;100.00
26489;BME280;14169;43.684;10.484;2022-07-03T01:35:22;101760.47;;;22.59;100.00
26489;BME280;14169;43.684;10.484;2022-07-03T01:37:50;101758.19;;;22.53;100.00
26489;BME280;14169;43.684;10.484;2022-07-03T01:40:17;101761.63;;;22.55;100.00
26489;BME280;14169;43.684;10.484;2022-07-03T01:42:44;101762.38;;;22.57;100.00
26489;BME280;14169;43.684;10.484;2022-07-03T01:45:12;101754.41;;;22.57;100.00
26489;BME280;14169;43.684;10.484;2022-07-03T01:47:40;101761.72;;;22.53;100.00
26489;BME280;14169;43.684;10.484;2022-07-03T01:50:09;101759.91;;;22.54;100.00
26489;BME280;14169;43.684;10.484;2022-07-03T01:52:35;101760.00;;;22.52;100.00
26489;BME280;14169;43.684;10.484;2022-07-03T01:55:04;101750.25;;;22.53;100.00
26489;BME280;14169;43.684;10.484;2022-07-03T01:57:39;101753.66;;;22.55;100.00
26489;BME280;14169;43.684;10.484;2022-07-03T02:00:07;101745.56;;;22.56;100.00
26489;BME280;14169;43.684;10.484;2022-07-03T02:02:33;101751.75;;;22.57;100.00
26489;BME280;14169;43.684;10.484;2022-07-03T02:05:14;101740.38;;;22.55;100.00
26489;BME280;14169;43.684;10.484;2022-07-03T02:07:51;101746.63;;;22.54;100.00
26489;BME280;14169;43.684;10.484;2022-07-03T02:10:27;101749.47;;;22.51;100.00
26489;BME280;14169;43.684;10.484;2022-07-03T02:12:59;101749.59;;;22.49;100.00
26489;BME280;14169;43.684;10.484;2022-07-03T02:15:30;101749.13;;;22.43;100.00
26489;BME280;14169;43.684;10.484;2022-07-03T02:17:57;101753.97;;;22.36;100.00
26489;BME280;14169;43.684;10.484;2022-07-03T02:20:24;101755.41;;;22.28;100.00
26489;BME280;14169;43.684;10.484;2022-07-03T02:22:59;101749.56;;;22.23;100.00
26489;BME280;14169;43.684;10.484;2022-07-03T02:25:40;101752.75;;;22.14;100.00
26489;BME280;14169;43.684;10.484;2022-07-03T02:28:14;101741.22;;;22.15;100.00
26489;BME280;14169;43.684;10.484;2022-07-03T02:30:43;101748.22;;;22.16;100.00
26489;BME280;14169;43.684;10.484;2022-07-03T02:33:18;101744.03;;;22.12;100.00
26489;BME280;14169;43.684;10.484;2022-07-03T02:35:47;101732.59;;;22.11;100.00
26489;BME280;14169;43.684;10.484;2022-07-03T02:38:18;101740.63;;;22.10;100.00
26489;BME280;14169;43.684;10.484;2022-07-03T02:43:24;101738.19;;;22.07;100.00
26489;BME280;14169;43.684;10.484;2022-07-03T02:49:42;101744.53;;;22.04;100.00
26489;BME280;14169;43.684;10.484;2022-07-03T02:58:01;101749.69;;;21.93;100.00
26489;BME280;14169;43.684;10.484;2022-07-03T03:00:33;101748.66;;;21.96;100.00
26489;BME280;14169;43.684;10.484;2022-07-03T03:03:01;101755.09;;;21.92;100.00
26489;BME280;14169;43.684;10.484;2022-07-03T03:08:35;101745.63;;;21.88;100.00
26489;BME280;14169;43.684;10.484;2022-07-03T03:11:09;101744.75;;;21.87;100.00
26489;BME280;14169;43.684;10.484;2022-07-03T03:13:36;101739.56;;;21.85;100.00
26489;BME280;14169;43.684;10.484;2022-07-03T03:16:08;101744.94;;;21.84;100.00
26489;BME280;14169;43.684;10.484;2022-07-03T03:18:39;101747.31;;;21.88;100.00
26489;BME280;14169;43.684;10.484;2022-07-03T03:21:08;101749.97;;;21.88;100.00
26489;BME280;14169;43.684;10.484;2022-07-03T03:25:59;101749.59;;;21.80;100.00
26489;BME280;14169;43.684;10.484;2022-07-03T03:28:25;101752.34;;;21.79;100.00
26489;BME280;14169;43.684;10.484;2022-07-03T03:30:51;101747.16;;;21.77;100.00
26489;BME280;14169;43.684;10.484;2022-07-03T03:33:17;101749.88;;;21.76;100.00
26489;BME280;14169;43.684;10.484;2022-07-03T03:35:44;101751.59;;;21.77;100.00
26489;BME280;14169;43.684;10.484;2022-07-03T03:38:09;101755.94;;;21.78;100.00
26489;BME280;14169;43.684;10.484;2022-07-03T03:40:35;101740.03;;;21.78;100.00
26489;BME280;14169;43.684;10.484;2022-07-03T03:43:02;101742.59;;;21.79;100.00
26489;BME280;14169;43.684;10.484;2022-07-03T03:45:28;101741.53;;;21.82;100.00
26489;BME280;14169;43.684;10.484;2022-07-03T03:47:54;101749.50;;;21.82;100.00
26489;BME280;14169;43.684;10.484;2022-07-03T03:50:19;101760.22;;;21.80;100.00
26489;BME280;14169;43.684;10.484;2022-07-03T03:52:45;101753.22;;;21.79;100.00
26489;BME280;14169;43.684;10.484;2022-07-03T03:55:11;101754.16;;;21.78;100.00
26489;BME280;14169;43.684;10.484;2022-07-03T03:57:37;101753.50;;;21.75;100.00
26489;BME280;14169;43.684;10.484;2022-07-03T04:00:06;101760.59;;;21.74;100.00
26489;BME280;14169;43.684;10.484;2022-07-03T04:02:31;101766.28;;;21.68;100.00
26489;BME280;14169;43.684;10.484;2022-07-03T04:04:57;101771.03;;;21.63;100.00
26489;BME280;14169;43.684;10.484;2022-07-03T04:07:25;101769.66;;;21.56;100.00
26489;BME280;14169;43.684;10.484;2022-07-03T04:09:50;101775.44;;;21.49;100.00
26489;BME280;14169;43.684;10.484;2022-07-03T04:12:15;101771.34;;;21.43;100.00
26489;BME280;14169;43.684;10.484;2022-07-03T04:14:41;101772.47;;;21.39;100.00
26489;BME280;14169;43.684;10.484;2022-07-03T04:17:06;101776.81;;;21.40;100.00
26489;BME280;14169;43.684;10.484;2022-07-03T04:19:32;101769.72;;;21.41;100.00
26489;BME280;14169;43.684;10.484;2022-07-03T04:21:58;101775.69;;;21.44;100.00
26489;BME280;14169;43.684;10.484;2022-07-03T04:24:23;101779.09;;;21.46;100.00
26489;BME280;14169;43.684;10.484;2022-07-03T04:26:49;101777.16;;;21.50;100.00
26489;BME280;14169;43.684;10.484;2022-07-03T04:29:14;101793.75;;;21.53;100.00
26489;BME280;14169;43.684;10.484;2022-07-03T04:31:40;101784.66;;;21.57;100.00
26489;BME280;14169;43.684;10.484;2022-07-03T04:34:05;101799.88;;;21.54;100.00
26489;BME280;14169;43.684;10.484;2022-07-03T04:36:31;101792.78;;;21.54;100.00
26489;BME280;14169;43.684;10.484;2022-07-03T04:38:56;101795.44;;;21.54;100.00
26489;BME280;14169;43.684;10.484;2022-07-03T04:41:22;101794.56;;;21.54;100.00
26489;BME280;14169;43.684;10.484;2022-07-03T04:43:47;101790.88;;;21.56;100.00
26489;BME280;14169;43.684;10.484;2022-07-03T04:46:12;101787.88;;;21.62;100.00
26489;BME280;14169;43.684;10.484;2022-07-03T04:48:38;101785.69;;;21.69;100.00
26489;BME280;14169;43.684;10.484;2022-07-03T04:51:03;101787.13;;;21.74;100.00
26489;BME280;14169;43.684;10.484;2022-07-03T04:53:29;101788.63;;;21.78;100.00
26489;BME280;14169;43.684;10.484;2022-07-03T04:55:54;101791.13;;;21.81;100.00
26489;BME280;14169;43.684;10.484;2022-07-03T04:58:20;101798.09;;;21.82;100.00
26489;BME280;14169;43.684;10.484;2022-07-03T05:00:45;101788.72;;;21.91;100.00
26489;BME280;14169;43.684;10.484;2022-07-03T05:03:12;101799.53;;;22.02;100.00
26489;BME280;14169;43.684;10.484;2022-07-03T05:05:37;101798.38;;;22.06;100.00
26489;BME280;14169;43.684;10.484;2022-07-03T05:08:03;101789.00;;;22.15;100.00
26489;BME280;14169;43.684;10.484;2022-07-03T05:10:28;101792.03;;;22.23;100.00
26489;BME280;14169;43.684;10.484;2022-07-03T05:12:54;101793.56;;;22.27;100.00
26489;BME280;14169;43.684;10.484;2022-07-03T05:15:20;101797.72;;;22.31;100.00
26489;BME280;14169;43.684;10.484;2022-07-03T05:17:45;101795.59;;;22.36;100.00
26489;BME280;14169;43.684;10.484;2022-07-03T05:20:11;101793.53;;;22.41;100.00
26489;BME280;14169;43.684;10.484;2022-07-03T05:22:49;101784.19;;;22.48;100.00
26489;BME280;14169;43.684;10.484;2022-07-03T05:25:14;101789.13;;;22.54;100.00
26489;BME280;14169;43.684;10.484;2022-07-03T05:27:40;101786.81;;;22.62;100.00
26489;BME280;14169;43.684;10.484;2022-07-03T05:30:05;101786.88;;;22.75;100.00
26489;BME280;14169;43.684;10.484;2022-07-03T05:32:31;101778.19;;;22.85;100.00
26489;BME280;14169;43.684;10.484;2022-07-03T05:34:56;101780.06;;;22.97;100.00
26489;BME280;14169;43.684;10.484;2022-07-03T05:37:22;101785.72;;;23.05;100.00
26489;BME280;14169;43.684;10.484;2022-07-03T05:39:47;101789.03;;;23.09;100.00
26489;BME280;14169;43.684;10.484;2022-07-03T05:42:13;101794.56;;;23.18;100.00
26489;BME280;14169;43.684;10.484;2022-07-03T05:44:38;101792.25;;;23.26;100.00
26489;BME280;14169;43.684;10.484;2022-07-03T05:47:03;101788.84;;;23.37;100.00
26489;BME280;14169;43.684;10.484;2022-07-03T05:49:29;101787.25;;;23.47;100.00
26489;BME280;14169;43.684;10.484;2022-07-03T05:51:54;101787.47;;;23.57;100.00
26489;BME280;14169;43.684;10.484;2022-07-03T05:54:20;101792.91;;;23.68;100.00
26489;BME280;14169;43.684;10.484;2022-07-03T05:56:45;101785.06;;;23.79;100.00
26489;BME280;14169;43.684;10.484;2022-07-03T05:59:11;101788.97;;;23.86;100.00
26489;BME280;14169;43.684;10.484;2022-07-03T06:01:36;101786.84;;;23.91;100.00
26489;BME280;14169;43.684;10.484;2022-07-03T06:04:02;101788.97;;;23.98;100.00
26489;BME280;14169;43.684;10.484;2022-07-03T06:06:27;101793.00;;;24.04;100.00
26489;BME280;14169;43.684;10.484;2022-07-03T06:08:53;101781.69;;;24.13;100.00
26489;BME280;14169;43.684;10.484;2022-07-03T06:11:18;101782.09;;;24.19;100.00
26489;BME280;14169;43.684;10.484;2022-07-03T06:13:44;101786.13;;;24.25;100.00
26489;BME280;14169;43.684;10.484;2022-07-03T06:16:09;101790.09;;;24.32;100.00
26489;BME280;14169;43.684;10.484;2022-07-03T06:18:35;101789.50;;;24.40;100.00
26489;BME280;14169;43.684;10.484;2022-07-03T06:21:00;101798.91;;;24.45;100.00
26489;BME280;14169;43.684;10.484;2022-07-03T06:23:26;101796.53;;;24.53;100.00
26489;BME280;14169;43.684;10.484;2022-07-03T06:25:51;101803.72;;;24.64;100.00
26489;BME280;14169;43.684;10.484;2022-07-03T06:28:16;101803.78;;;24.75;100.00
26489;BME280;14169;43.684;10.484;2022-07-03T06:30:43;101813.13;;;24.80;100.00
26489;BME280;14169;43.684;10.484;2022-07-03T06:33:08;101818.75;;;24.88;100.00
26489;BME280;14169;43.684;10.484;2022-07-03T06:35:33;101812.97;;;24.94;100.00
26489;BME280;14169;43.684;10.484;2022-07-03T06:38:05;101802.47;;;25.04;100.00
26489;BME280;14169;43.684;10.484;2022-07-03T06:40:30;101804.69;;;25.10;100.00
26489;BME280;14169;43.684;10.484;2022-07-03T06:42:56;101793.94;;;25.23;100.00
26489;BME280;14169;43.684;10.484;2022-07-03T06:45:21;101795.19;;;25.41;100.00
26489;BME280;14169;43.684;10.484;2022-07-03T06:47:46;101788.66;;;25.56;100.00
26489;BME280;14169;43.684;10.484;2022-07-03T06:50:12;101792.47;;;25.64;100.00
26489;BME280;14169;43.684;10.484;2022-07-03T06:52:37;101790.53;;;25.77;100.00
26489;BME280;14169;43.684;10.484;2022-07-03T06:55:04;101782.75;;;25.85;100.00
26489;BME280;14169;43.684;10.484;2022-07-03T06:57:29;101779.25;;;25.96;100.00
26489;BME280;14169;43.684;10.484;2022-07-03T06:59:55;101780.44;;;26.03;100.00
26489;BME280;14169;43.684;10.484;2022-07-03T07:02:20;101773.38;;;26.13;100.00
26489;BME280;14169;43.684;10.484;2022-07-03T07:04:45;101773.63;;;26.21;100.00
26489;BME280;14169;43.684;10.484;2022-07-03T07:07:11;101773.06;;;26.29;100.00
26489;BME280;14169;43.684;10.484;2022-07-03T07:09:36;101775.09;;;26.36;100.00
26489;BME280;14169;43.684;10.484;2022-07-03T07:12:02;101776.63;;;26.50;100.00
26489;BME280;14169;43.684;10.484;2022-07-03T07:14:27;101783.50;;;26.63;100.00
26489;BME280;14169;43.684;10.484;2022-07-03T07:16:52;101786.69;;;26.68;100.00
26489;BME280;14169;43.684;10.484;2022-07-03T07:19:18;101781.31;;;26.68;100.00
26489;BME280;14169;43.684;10.484;2022-07-03T07:21:43;101774.91;;;26.60;100.00
26489;BME280;14169;43.684;10.484;2022-07-03T07:24:09;101776.50;;;26.62;100.00
26489;BME280;14169;43.684;10.484;2022-07-03T07:26:34;101781.06;;;26.71;100.00
26489;BME280;14169;43.684;10.484;2022-07-03T07:28:59;101779.19;;;26.83;100.00
26489;BME280;14169;43.684;10.484;2022-07-03T07:31:25;101787.56;;;27.01;100.00
26489;BME280;14169;43.684;10.484;2022-07-03T07:33:50;101788.34;;;27.12;100.00
26489;BME280;14169;43.684;10.484;2022-07-03T07:36:16;101787.16;;;27.26;100.00
26489;BME280;14169;43.684;10.484;2022-07-03T07:38:41;101795.38;;;27.34;100.00
26489;BME280;14169;43.684;10.484;2022-07-03T07:41:06;101786.34;;;27.35;100.00
26489;BME280;14169;43.684;10.484;2022-07-03T07:43:32;101786.44;;;27.44;100.00
26489;BME280;14169;43.684;10.484;2022-07-03T07:45:57;101787.53;;;27.42;100.00
26489;BME280;14169;43.684;10.484;2022-07-03T07:48:23;101785.81;;;27.52;100.00
26489;BME280;14169;43.684;10.484;2022-07-03T07:50:49;101779.06;;;27.57;100.00
26489;BME280;14169;43.684;10.484;2022-07-03T07:53:15;101782.50;;;27.69;100.00
26489;BME280;14169;43.684;10.484;2022-07-03T07:55:41;101786.34;;;27.76;100.00
26489;BME280;14169;43.684;10.484;2022-07-03T07:58:07;101777.28;;;27.98;100.00
26489;BME280;14169;43.684;10.484;2022-07-03T08:00:33;101781.00;;;28.06;100.00
26489;BME280;14169;43.684;10.484;2022-07-03T08:02:58;101781.72;;;28.08;100.00
26489;BME280;14169;43.684;10.484;2022-07-03T08:05:42;101781.06;;;28.25;100.00
26489;BME280;14169;43.684;10.484;2022-07-03T08:10:37;101768.25;;;28.48;100.00
26489;BME280;14169;43.684;10.484;2022-07-03T08:13:04;101773.47;;;28.49;100.00
26489;BME280;14169;43.684;10.484;2022-07-03T08:15:30;101768.13;;;28.49;100.00
26489;BME280;14169;43.684;10.484;2022-07-03T08:17:55;101756.31;;;28.62;100.00
26489;BME280;14169;43.684;10.484;2022-07-03T08:20:21;101750.94;;;28.71;100.00
26489;BME280;14169;43.684;10.484;2022-07-03T08:22:46;101740.19;;;28.81;100.00
26489;BME280;14169;43.684;10.484;2022-07-03T08:25:12;101733.00;;;28.81;100.00
26489;BME280;14169;43.684;10.484;2022-07-03T08:27:37;101733.72;;;28.83;100.00
26489;BME280;14169;43.684;10.484;2022-07-03T08:30:03;101719.88;;;28.88;100.00
26489;BME280;14169;43.684;10.484;2022-07-03T08:32:29;101721.84;;;28.95;100.00
26489;BME280;14169;43.684;10.484;2022-07-03T08:34:54;101718.56;;;29.01;100.00
26489;BME280;14169;43.684;10.484;2022-07-03T08:37:19;101716.03;;;29.09;100.00
26489;BME280;14169;43.684;10.484;2022-07-03T08:39:45;101723.94;;;29.20;100.00
26489;BME280;14169;43.684;10.484;2022-07-03T08:42:14;101718.72;;;29.19;100.00
26489;BME280;14169;43.684;10.484;2022-07-03T08:44:42;101718.09;;;29.35;100.00
26489;BME280;14169;43.684;10.484;2022-07-03T08:47:11;101719.72;;;29.55;100.00
26489;BME280;14169;43.684;10.484;2022-07-03T08:49:37;101713.31;;;29.65;100.00
26489;BME280;14169;43.684;10.484;2022-07-03T08:52:03;101711.75;;;29.72;100.00
26489;BME280;14169;43.684;10.484;2022-07-03T08:54:32;101703.56;;;29.74;100.00
26489;BME280;14169;43.684;10.484;2022-07-03T08:57:00;101699.88;;;29.75;100.00
26489;BME280;14169;43.684;10.484;2022-07-03T08:59:32;101695.53;;;29.91;100.00
26489;BME280;14169;43.684;10.484;2022-07-03T09:02:00;101692.03;;;30.08;100.00
26489;BME280;14169;43.684;10.484;2022-07-03T09:04:26;101692.47;;;30.31;100.00
26489;BME280;14169;43.684;10.484;2022-07-03T09:06:51;101692.84;;;30.54;100.00
26489;BME280;14169;43.684;10.484;2022-07-03T09:09:17;101696.06;;;30.57;100.00
26489;BME280;14169;43.684;10.484;2022-07-03T09:11:43;101691.13;;;30.70;100.00
26489;BME280;14169;43.684;10.484;2022-07-03T09:14:09;101698.69;;;30.84;100.00
26489;BME280;14169;43.684;10.484;2022-07-03T09:16:35;101687.72;;;31.04;100.00
26489;BME280;14169;43.684;10.484;2022-07-03T09:19:02;101688.13;;;31.17;100.00
26489;BME280;14169;43.684;10.484;2022-07-03T09:21:40;101687.50;;;31.23;100.00
26489;BME280;14169;43.684;10.484;2022-07-03T09:24:07;101688.78;;;31.36;100.00
26489;BME280;14169;43.684;10.484;2022-07-03T09:26:34;101683.84;;;31.57;100.00
26489;BME280;14169;43.684;10.484;2022-07-03T09:29:00;101673.97;;;31.82;100.00
26489;BME280;14169;43.684;10.484;2022-07-03T09:31:28;101669.22;;;32.10;100.00
26489;BME280;14169;43.684;10.484;2022-07-03T09:34:04;101660.13;;;32.19;100.00
26489;BME280;14169;43.684;10.484;2022-07-03T09:36:42;101664.03;;;32.40;100.00
26489;BME280;14169;43.684;10.484;2022-07-03T09:39:19;101650.06;;;32.45;100.00
26489;BME280;14169;43.684;10.484;2022-07-03T09:41:57;101641.94;;;32.77;100.00
26489;BME280;14169;43.684;10.484;2022-07-03T09:47:12;101639.25;;;32.93;100.00
26489;BME280;14169;43.684;10.484;2022-07-03T09:52:39;101638.81;;;33.20;100.00
26489;BME280;14169;43.684;10.484;2022-07-03T09:57:58;101635.31;;;33.59;100.00
26489;BME280;14169;43.684;10.484;2022-07-03T10:00:28;101634.22;;;33.76;100.00
26489;BME280;14169;43.684;10.484;2022-07-03T10:05:26;101623.63;;;33.66;100.00
26489;BME280;14169;43.684;10.484;2022-07-03T10:08:14;101625.53;;;33.58;100.00
26489;BME280;14169;43.684;10.484;2022-07-03T10:10:48;101622.47;;;33.61;100.00
26489;BME280;14169;43.684;10.484;2022-07-03T10:13:14;101610.66;;;33.62;100.00
26489;BME280;14169;43.684;10.484;2022-07-03T10:15:41;101622.13;;;33.64;100.00
26489;BME280;14169;43.684;10.484;2022-07-03T10:18:19;101610.41;;;33.41;98.58
26489;BME280;14169;43.684;10.484;2022-07-03T10:20:49;101607.38;;;33.35;96.79
26489;BME280;14169;43.684;10.484;2022-07-03T10:23:23;101604.31;;;33.47;90.51
26489;BME280;14169;43.684;10.484;2022-07-03T10:25:49;101601.00;;;33.67;95.23
26489;BME280;14169;43.684;10.484;2022-07-03T10:28:17;101595.34;;;33.77;90.41
26489;BME280;14169;43.684;10.484;2022-07-03T10:30:44;101598.88;;;34.08;86.54
26489;BME280;14169;43.684;10.484;2022-07-03T10:33:10;101595.56;;;34.43;84.13
26489;BME280;14169;43.684;10.484;2022-07-03T10:35:42;101595.44;;;34.59;77.33
26489;BME280;14169;43.684;10.484;2022-07-03T10:41:07;101595.09;;;35.06;71.92
26489;BME280;14169;43.684;10.484;2022-07-03T10:43:54;101588.06;;;35.26;71.29
26489;BME280;14169;43.684;10.484;2022-07-03T10:46:38;101582.56;;;35.34;69.81
26489;BME280;14169;43.684;10.484;2022-07-03T10:49:13;101589.38;;;35.16;68.47
26489;BME280;14169;43.684;10.484;2022-07-03T10:54:20;101567.53;;;35.32;63.34
26489;BME280;14169;43.684;10.484;2022-07-03T11:02:41;101554.38;;;35.86;55.39
26489;BME280;14169;43.684;10.484;2022-07-03T11:05:16;101561.25;;;36.03;55.47
26489;BME280;14169;43.684;10.484;2022-07-03T11:18:32;101555.47;;;37.29;48.05
26489;BME280;14169;43.684;10.484;2022-07-03T11:26:24;101560.66;;;37.72;45.99
26489;BME280;14169;43.684;10.484;2022-07-03T11:28:53;101563.59;;;37.83;45.24
26489;BME280;14169;43.684;10.484;2022-07-03T11:31:20;101556.69;;;37.81;43.74
26489;BME280;14169;43.684;10.484;2022-07-03T11:36:25;101543.09;;;37.94;43.48
26489;BME280;14169;43.684;10.484;2022-07-03T11:41:27;101536.84;;;38.46;43.25
26489;BME280;14169;43.684;10.484;2022-07-03T11:43:54;101539.75;;;38.70;43.96
26489;BME280;14169;43.684;10.484;2022-07-03T11:46:22;101530.16;;;38.55;42.30
26489;BME280;14169;43.684;10.484;2022-07-03T11:48:48;101530.16;;;38.29;43.29
26489;BME280;14169;43.684;10.484;2022-07-03T11:51:14;101539.13;;;37.96;43.21
26489;BME280;14169;43.684;10.484;2022-07-03T11:53:41;101533.66;;;37.83;44.57
26489;BME280;14169;43.684;10.484;2022-07-03T11:56:09;101525.91;;;37.74;45.70
26489;BME280;14169;43.684;10.484;2022-07-03T11:58:45;101525.88;;;37.67;47.88
26489;BME280;14169;43.684;10.484;2022-07-03T12:06:50;101526.88;;;37.47;76.58
26489;BME280;14169;43.684;10.484;2022-07-03T12:09:23;101530.59;;;36.92;81.83
26489;BME280;14169;43.684;10.484;2022-07-03T12:12:10;101539.53;;;36.51;82.39
26489;BME280;14169;43.684;10.484;2022-07-03T12:14:49;101531.97;;;35.98;85.98
26489;BME280;14169;43.684;10.484;2022-07-03T12:17:22;101525.78;;;35.83;85.67
26489;BME280;14169;43.684;10.484;2022-07-03T12:19:50;101523.91;;;35.83;82.98
26489;BME280;14169;43.684;10.484;2022-07-03T12:24:58;101528.78;;;35.73;81.05
26489;BME280;14169;43.684;10.484;2022-07-03T12:27:24;101537.50;;;35.69;80.83
26489;BME280;14169;43.684;10.484;2022-07-03T12:29:50;101533.66;;;35.78;77.84
26489;BME280;14169;43.684;10.484;2022-07-03T12:32:16;101537.56;;;35.54;75.16
26489;BME280;14169;43.684;10.484;2022-07-03T12:34:42;101530.78;;;35.65;76.85
26489;BME280;14169;43.684;10.484;2022-07-03T12:37:08;101537.25;;;35.64;77.15
26489;BME280;14169;43.684;10.484;2022-07-03T12:39:59;101534.72;;;35.62;73.81
26489;BME280;14169;43.684;10.484;2022-07-03T12:42:25;101539.81;;;35.72;75.61
26489;BME280;14169;43.684;10.484;2022-07-03T12:45:02;101535.56;;;35.63;74.45
26489;BME280;14169;43.684;10.484;2022-07-03T12:47:30;101539.63;;;35.73;76.49
26489;BME280;14169;43.684;10.484;2022-07-03T12:50:00;101531.03;;;35.70;72.70
26489;BME280;14169;43.684;10.484;2022-07-03T12:52:30;101529.94;;;35.64;74.21
26489;BME280;14169;43.684;10.484;2022-07-03T12:54:57;101536.00;;;35.81;74.67
26489;BME280;14169;43.684;10.484;2022-07-03T12:57:23;101530.31;;;35.76;71.37
26489;BME280;14169;43.684;10.484;2022-07-03T13:00:13;101533.19;;;35.53;67.61
26489;BME280;14169;43.684;10.484;2022-07-03T13:02:43;101538.53;;;35.47;67.48
26489;BME280;14169;43.684;10.484;2022-07-03T13:05:19;101540.47;;;35.53;63.38
26489;BME280;14169;43.684;10.484;2022-07-03T13:07:47;101533.81;;;35.91;65.35
26489;BME280;14169;43.684;10.484;2022-07-03T13:10:17;101537.78;;;36.16;63.57
26489;BME280;14169;43.684;10.484;2022-07-03T13:12:58;101529.81;;;36.36;61.66
26489;BME280;14169;43.684;10.484;2022-07-03T13:15:26;101535.72;;;36.67;60.74
26489;BME280;14169;43.684;10.484;2022-07-03T13:20:27;101540.91;;;36.20;55.24
26489;BME280;14169;43.684;10.484;2022-07-03T13:22:55;101538.50;;;36.04;55.69
26489;BME280;14169;43.684;10.484;2022-07-03T13:25:21;101532.66;;;36.28;51.21
26489;BME280;14169;43.684;10.484;2022-07-03T13:27:47;101525.41;;;36.14;47.80
26489;BME280;14169;43.684;10.484;2022-07-03T13:30:16;101538.44;;;35.76;50.24
26489;BME280;14169;43.684;10.484;2022-07-03T13:32:42;101532.53;;;35.72;54.17
26489;BME280;14169;43.684;10.484;2022-07-03T13:35:09;101532.44;;;36.23;54.22
26489;BME280;14169;43.684;10.484;2022-07-03T13:37:35;101526.41;;;36.61;51.49
26489;BME280;14169;43.684;10.484;2022-07-03T13:40:02;101525.75;;;36.81;50.63
26489;BME280;14169;43.684;10.484;2022-07-03T13:42:28;101532.28;;;36.93;49.11
26489;BME280;14169;43.684;10.484;2022-07-03T13:44:53;101536.06;;;36.64;45.50
26489;BME280;14169;43.684;10.484;2022-07-03T13:47:19;101531.53;;;36.43;47.95
26489;BME280;14169;43.684;10.484;2022-07-03T13:49:44;101538.03;;;36.21;51.64
26489;BME280;14169;43.684;10.484;2022-07-03T13:52:10;101536.81;;;36.51;48.79
26489;BME280;14169;43.684;10.484;2022-07-03T13:54:35;101528.03;;;36.84;44.95
26489;BME280;14169;43.684;10.484;2022-07-03T13:57:02;101534.66;;;37.09;45.81